sensor_id;sensor_type;location;lat;lon;timestamp;temperature;humidity
34492;DHT22;20737;49.908;8.126;2023-05-18T00:00:36;7.80;99.90
34492;DHT22;20737;49.908;8.126;2023-05-18T00:03:03;7.80;99.90
34492;DHT22;20737;49.908;8.126;2023-05-18T00:05:29;7.80;99.90
34492;DHT22;20737;49.908;8.126;2023-05-18T00:08:00;7.70;99.90
34492;DHT22;20737;49.908;8.126;2023-05-18T00:10:26;7.70;99.90
34492;DHT22;20737;49.908;8.126;2023-05-18T00:12:53;7.60;99.90
34492;DHT22;20737;49.908;8.126;2023-05-18T00:15:20;7.70;99.90
34492;DHT22;20737;49.908;8.126;2023-05-18T00:17:47;7.70;99.90
34492;DHT22;20737;49.908;8.126;2023-05-18T00:20:15;7.70;99.90
34492;DHT22;20737;49.908;8.126;2023-05-18T00:22:43;7.70;99.90
34492;DHT22;20737;49.908;8.126;2023-05-18T00:25:11;7.70;99.90
34492;DHT22;20737;49.908;8.126;2023-05-18T00:27:37;7.80;99.90
34492;DHT22;20737;49.908;8.126;2023-05-18T00:30:07;7.80;99.90
34492;DHT22;20737;49.908;8.126;2023-05-18T00:32:36;7.70;99.90
34492;DHT22;20737;49.908;8.126;2023-05-18T00:35:12;7.70;99.90
34492;DHT22;20737;49.908;8.126;2023-05-18T00:37:39;7.70;99.90
34492;DHT22;20737;49.908;8.126;2023-05-18T00:40:07;7.70;99.90
34492;DHT22;20737;49.908;8.126;2023-05-18T00:42:35;7.70;99.90
34492;DHT22;20737;49.908;8.126;2023-05-18T00:45:06;7.70;99.90
34492;DHT22;20737;49.908;8.126;2023-05-18T00:47:33;7.60;99.90
34492;DHT22;20737;49.908;8.126;2023-05-18T00:50:00;7.70;99.90
34492;DHT22;20737;49.908;8.126;2023-05-18T00:52:27;7.70;99.90
34492;DHT22;20737;49.908;8.126;2023-05-18T00:54:55;7.60;99.90
34492;DHT22;20737;49.908;8.126;2023-05-18T00:57:22;7.60;99.90
34492;DHT22;20737;49.908;8.126;2023-05-18T00:59:50;7.60;99.90
34492;DHT22;20737;49.908;8.126;2023-05-18T01:02:17;7.60;99.90
34492;DHT22;20737;49.908;8.126;2023-05-18T01:04:47;7.60;99.90
34492;DHT22;20737;49.908;8.126;2023-05-18T01:07:14;7.50;99.90
34492;DHT22;20737;49.908;8.126;2023-05-18T01:09:43;7.50;99.90
34492;DHT22;20737;49.908;8.126;2023-05-18T01:12:16;7.40;99.90
34492;DHT22;20737;49.908;8.126;2023-05-18T01:14:48;7.40;99.90
34492;DHT22;20737;49.908;8.126;2023-05-18T01:17:25;7.40;99.90
34492;DHT22;20737;49.908;8.126;2023-05-18T01:20:14;7.30;99.90
34492;DHT22;20737;49.908;8.126;2023-05-18T01:25:45;7.20;99.90
34492;DHT22;20737;49.908;8.126;2023-05-18T01:28:17;7.10;99.90
34492;DHT22;20737;49.908;8.126;2023-05-18T01:30:47;7.00;99.90
34492;DHT22;20737;49.908;8.126;2023-05-18T01:33:16;6.90;99.90
34492;DHT22;20737;49.908;8.126;2023-05-18T01:35:42;6.90;99.90
34492;DHT22;20737;49.908;8.126;2023-05-18T01:38:13;6.70;99.90
34492;DHT22;20737;49.908;8.126;2023-05-18T01:40:47;6.70;99.90
34492;DHT22;20737;49.908;8.126;2023-05-18T01:43:21;6.60;99.90
34492;DHT22;20737;49.908;8.126;2023-05-18T01:45:50;6.50;99.90
34492;DHT22;20737;49.908;8.126;2023-05-18T01:48:20;6.40;99.90
34492;DHT22;20737;49.908;8.126;2023-05-18T01:50:51;6.30;99.90
34492;DHT22;20737;49.908;8.126;2023-05-18T01:53:24;6.30;99.90
34492;DHT22;20737;49.908;8.126;2023-05-18T01:55:53;6.20;99.90
34492;DHT22;20737;49.908;8.126;2023-05-18T01:58:22;6.20;99.90
34492;DHT22;20737;49.908;8.126;2023-05-18T02:00:49;6.20;99.90
34492;DHT22;20737;49.908;8.126;2023-05-18T02:03:16;6.10;99.90
34492;DHT22;20737;49.908;8.126;2023-05-18T02:05:43;6.10;99.90
34492;DHT22;20737;49.908;8.126;2023-05-18T02:08:10;6.10;99.90
34492;DHT22;20737;49.908;8.126;2023-05-18T02:10:37;6.00;99.90
34492;DHT22;20737;49.908;8.126;2023-05-18T02:13:03;6.00;99.90
34492;DHT22;20737;49.908;8.126;2023-05-18T02:15:33;6.00;99.90
34492;DHT22;20737;49.908;8.126;2023-05-18T02:18:00;6.00;99.90
34492;DHT22;20737;49.908;8.126;2023-05-18T02:20:27;6.00;99.90
34492;DHT22;20737;49.908;8.126;2023-05-18T02:22:57;5.90;99.90
34492;DHT22;20737;49.908;8.126;2023-05-18T02:25:24;5.90;99.90
34492;DHT22;20737;49.908;8.126;2023-05-18T02:27:51;5.90;99.90
34492;DHT22;20737;49.908;8.126;2023-05-18T02:30:18;5.90;99.90
34492;DHT22;20737;49.908;8.126;2023-05-18T02:32:46;5.80;99.90
34492;DHT22;20737;49.908;8.126;2023-05-18T02:35:14;5.80;99.90
34492;DHT22;20737;49.908;8.126;2023-05-18T02:37:43;5.80;99.90
34492;DHT22;20737;49.908;8.126;2023-05-18T02:40:10;5.80;99.90
34492;DHT22;20737;49.908;8.126;2023-05-18T02:42:40;5.80;99.90
34492;DHT22;20737;49.908;8.126;2023-05-18T02:45:07;5.80;99.90
34492;DHT22;20737;49.908;8.126;2023-05-18T02:47:34;5.70;99.90
34492;DHT22;20737;49.908;8.126;2023-05-18T02:50:03;5.80;99.90
34492;DHT22;20737;49.908;8.126;2023-05-18T02:52:29;5.80;99.90
34492;DHT22;20737;49.908;8.126;2023-05-18T02:54:58;5.80;99.90
34492;DHT22;20737;49.908;8.126;2023-05-18T02:57:25;5.80;99.90
34492;DHT22;20737;49.908;8.126;2023-05-18T02:59:52;5.80;99.90
34492;DHT22;20737;49.908;8.126;2023-05-18T03:02:18;5.80;99.90
34492;DHT22;20737;49.908;8.126;2023-05-18T03:04:47;5.70;99.90
34492;DHT22;20737;49.908;8.126;2023-05-18T03:07:20;5.70;99.90
34492;DHT22;20737;49.908;8.126;2023-05-18T03:09:46;5.60;99.90
34492;DHT22;20737;49.908;8.126;2023-05-18T03:12:15;5.60;99.90
34492;DHT22;20737;49.908;8.126;2023-05-18T03:14:42;5.50;99.90
34492;DHT22;20737;49.908;8.126;2023-05-18T03:17:11;5.40;99.90
34492;DHT22;20737;49.908;8.126;2023-05-18T03:19:39;5.40;99.90
34492;DHT22;20737;49.908;8.126;2023-05-18T03:22:09;5.40;99.90
34492;DHT22;20737;49.908;8.126;2023-05-18T03:24:37;5.30;99.90
34492;DHT22;20737;49.908;8.126;2023-05-18T03:27:05;5.30;99.90
34492;DHT22;20737;49.908;8.126;2023-05-18T03:29:32;5.20;99.90
34492;DHT22;20737;49.908;8.126;2023-05-18T03:31:59;5.10;99.90
34492;DHT22;20737;49.908;8.126;2023-05-18T03:34:26;5.00;99.90
34492;DHT22;20737;49.908;8.126;2023-05-18T03:36:53;5.00;99.90
34492;DHT22;20737;49.908;8.126;2023-05-18T03:39:22;5.00;99.90
34492;DHT22;20737;49.908;8.126;2023-05-18T03:41:51;5.00;99.90
34492;DHT22;20737;49.908;8.126;2023-05-18T03:44:18;4.90;99.90
34492;DHT22;20737;49.908;8.126;2023-05-18T03:46:46;4.90;99.90
34492;DHT22;20737;49.908;8.126;2023-05-18T03:49:13;4.90;99.90
34492;DHT22;20737;49.908;8.126;2023-05-18T03:51:40;4.90;99.90
34492;DHT22;20737;49.908;8.126;2023-05-18T03:54:07;5.00;99.90
34492;DHT22;20737;49.908;8.126;2023-05-18T03:56:39;5.00;99.90
34492;DHT22;20737;49.908;8.126;2023-05-18T03:59:07;5.00;99.90
34492;DHT22;20737;49.908;8.126;2023-05-18T04:01:57;5.10;99.90
34492;DHT22;20737;49.908;8.126;2023-05-18T04:04:24;5.20;99.90
34492;DHT22;20737;49.908;8.126;2023-05-18T04:06:51;5.20;99.90
34492;DHT22;20737;49.908;8.126;2023-05-18T04:09:18;5.20;99.90
34492;DHT22;20737;49.908;8.126;2023-05-18T04:11:48;5.20;99.90
34492;DHT22;20737;49.908;8.126;2023-05-18T04:14:16;5.30;99.90
34492;DHT22;20737;49.908;8.126;2023-05-18T04:16:46;5.30;99.90
34492;DHT22;20737;49.908;8.126;2023-05-18T04:19:12;5.40;99.90
34492;DHT22;20737;49.908;8.126;2023-05-18T04:21:40;5.40;99.90
34492;DHT22;20737;49.908;8.126;2023-05-18T04:24:08;5.50;99.90
34492;DHT22;20737;49.908;8.126;2023-05-18T04:26:39;5.50;99.90
34492;DHT22;20737;49.908;8.126;2023-05-18T04:29:06;5.50;99.90
34492;DHT22;20737;49.908;8.126;2023-05-18T04:31:36;5.60;99.90
34492;DHT22;20737;49.908;8.126;2023-05-18T04:34:06;5.70;99.90
34492;DHT22;20737;49.908;8.126;2023-05-18T04:36:33;5.80;99.90
34492;DHT22;20737;49.908;8.126;2023-05-18T04:39:00;5.90;99.90
34492;DHT22;20737;49.908;8.126;2023-05-18T04:41:32;5.90;99.90
34492;DHT22;20737;49.908;8.126;2023-05-18T04:44:01;6.10;99.90
34492;DHT22;20737;49.908;8.126;2023-05-18T04:46:28;6.20;99.90
34492;DHT22;20737;49.908;8.126;2023-05-18T04:48:58;6.30;99.90
34492;DHT22;20737;49.908;8.126;2023-05-18T04:51:25;6.50;99.90
34492;DHT22;20737;49.908;8.126;2023-05-18T04:53:52;6.60;99.90
34492;DHT22;20737;49.908;8.126;2023-05-18T04:56:20;6.70;99.90
34492;DHT22;20737;49.908;8.126;2023-05-18T04:58:48;6.80;99.90
34492;DHT22;20737;49.908;8.126;2023-05-18T05:01:15;6.90;99.90
34492;DHT22;20737;49.908;8.126;2023-05-18T05:03:43;7.10;99.90
34492;DHT22;20737;49.908;8.126;2023-05-18T05:06:12;7.20;99.90
34492;DHT22;20737;49.908;8.126;2023-05-18T05:08:40;7.40;99.90
34492;DHT22;20737;49.908;8.126;2023-05-18T05:11:06;7.60;99.90
34492;DHT22;20737;49.908;8.126;2023-05-18T05:13:36;7.70;99.90
34492;DHT22;20737;49.908;8.126;2023-05-18T05:16:02;7.80;99.90
34492;DHT22;20737;49.908;8.126;2023-05-18T05:18:29;8.00;99.90
34492;DHT22;20737;49.908;8.126;2023-05-18T05:20:56;8.10;99.90
34492;DHT22;20737;49.908;8.126;2023-05-18T05:23:25;8.40;99.90
34492;DHT22;20737;49.908;8.126;2023-05-18T05:25:51;8.60;99.90
34492;DHT22;20737;49.908;8.126;2023-05-18T05:28:18;8.70;99.90
34492;DHT22;20737;49.908;8.126;2023-05-18T05:30:45;9.00;99.90
34492;DHT22;20737;49.908;8.126;2023-05-18T05:33:12;9.20;99.90
34492;DHT22;20737;49.908;8.126;2023-05-18T05:35:38;9.50;99.90
34492;DHT22;20737;49.908;8.126;2023-05-18T05:38:08;9.70;99.90
34492;DHT22;20737;49.908;8.126;2023-05-18T05:40:36;10.00;99.90
34492;DHT22;20737;49.908;8.126;2023-05-18T05:43:04;10.20;99.90
34492;DHT22;20737;49.908;8.126;2023-05-18T05:45:31;10.40;99.90
34492;DHT22;20737;49.908;8.126;2023-05-18T05:47:59;10.50;99.90
34492;DHT22;20737;49.908;8.126;2023-05-18T05:50:29;10.70;99.90
34492;DHT22;20737;49.908;8.126;2023-05-18T05:52:58;10.80;99.90
34492;DHT22;20737;49.908;8.126;2023-05-18T05:55:26;11.10;99.90
34492;DHT22;20737;49.908;8.126;2023-05-18T05:57:54;11.10;99.90
34492;DHT22;20737;49.908;8.126;2023-05-18T06:00:21;11.30;99.90
34492;DHT22;20737;49.908;8.126;2023-05-18T06:02:55;11.40;99.90
34492;DHT22;20737;49.908;8.126;2023-05-18T06:05:24;11.50;99.90
34492;DHT22;20737;49.908;8.126;2023-05-18T06:07:52;11.80;99.90
34492;DHT22;20737;49.908;8.126;2023-05-18T06:10:19;11.90;99.90
34492;DHT22;20737;49.908;8.126;2023-05-18T06:12:46;12.10;99.90
34492;DHT22;20737;49.908;8.126;2023-05-18T06:15:15;12.90;99.90
34492;DHT22;20737;49.908;8.126;2023-05-18T06:17:41;13.60;99.90
34492;DHT22;20737;49.908;8.126;2023-05-18T06:20:10;14.30;99.90
34492;DHT22;20737;49.908;8.126;2023-05-18T06:22:39;15.10;99.90
34492;DHT22;20737;49.908;8.126;2023-05-18T06:25:06;15.50;99.90
34492;DHT22;20737;49.908;8.126;2023-05-18T06:27:35;15.90;99.90
34492;DHT22;20737;49.908;8.126;2023-05-18T06:30:02;15.90;98.80
34492;DHT22;20737;49.908;8.126;2023-05-18T06:32:31;16.30;96.70
34492;DHT22;20737;49.908;8.126;2023-05-18T06:34:57;16.50;95.40
34492;DHT22;20737;49.908;8.126;2023-05-18T06:37:24;17.10;94.40
34492;DHT22;20737;49.908;8.126;2023-05-18T06:39:51;17.50;92.90
34492;DHT22;20737;49.908;8.126;2023-05-18T06:42:23;18.20;91.40
34492;DHT22;20737;49.908;8.126;2023-05-18T06:44:56;18.60;88.90
34492;DHT22;20737;49.908;8.126;2023-05-18T06:47:24;18.80;83.60
34492;DHT22;20737;49.908;8.126;2023-05-18T06:49:52;18.80;81.40
34492;DHT22;20737;49.908;8.126;2023-05-18T06:52:19;19.10;81.10
34492;DHT22;20737;49.908;8.126;2023-05-18T06:54:48;19.00;77.40
34492;DHT22;20737;49.908;8.126;2023-05-18T06:57:16;19.00;78.60
34492;DHT22;20737;49.908;8.126;2023-05-18T06:59:43;19.10;77.80
34492;DHT22;20737;49.908;8.126;2023-05-18T07:02:17;19.20;79.00
34492;DHT22;20737;49.908;8.126;2023-05-18T07:04:44;19.60;76.20
34492;DHT22;20737;49.908;8.126;2023-05-18T07:07:13;19.70;75.00
34492;DHT22;20737;49.908;8.126;2023-05-18T07:09:41;20.10;74.00
34492;DHT22;20737;49.908;8.126;2023-05-18T07:12:10;20.50;71.70
34492;DHT22;20737;49.908;8.126;2023-05-18T07:14:36;20.70;68.50
34492;DHT22;20737;49.908;8.126;2023-05-18T07:17:03;21.10;66.50
34492;DHT22;20737;49.908;8.126;2023-05-18T07:19:31;20.80;67.60
34492;DHT22;20737;49.908;8.126;2023-05-18T07:21:59;20.90;67.10
34492;DHT22;20737;49.908;8.126;2023-05-18T07:24:29;21.00;65.80
34492;DHT22;20737;49.908;8.126;2023-05-18T07:26:56;21.10;66.00
34492;DHT22;20737;49.908;8.126;2023-05-18T07:29:22;21.50;62.50
34492;DHT22;20737;49.908;8.126;2023-05-18T07:31:49;20.90;63.70
34492;DHT22;20737;49.908;8.126;2023-05-18T07:34:16;21.20;66.00
34492;DHT22;20737;49.908;8.126;2023-05-18T07:36:43;21.40;63.40
34492;DHT22;20737;49.908;8.126;2023-05-18T07:39:10;21.80;61.50
34492;DHT22;20737;49.908;8.126;2023-05-18T07:41:44;22.50;61.50
34492;DHT22;20737;49.908;8.126;2023-05-18T07:44:11;22.40;58.20
34492;DHT22;20737;49.908;8.126;2023-05-18T07:46:38;22.60;59.10
34492;DHT22;20737;49.908;8.126;2023-05-18T07:49:05;23.00;57.20
34492;DHT22;20737;49.908;8.126;2023-05-18T07:51:33;23.00;56.40
34492;DHT22;20737;49.908;8.126;2023-05-18T07:53:59;23.20;55.70
34492;DHT22;20737;49.908;8.126;2023-05-18T07:56:26;23.10;57.30
34492;DHT22;20737;49.908;8.126;2023-05-18T07:58:55;23.70;56.50
34492;DHT22;20737;49.908;8.126;2023-05-18T08:01:23;23.60;56.30
34492;DHT22;20737;49.908;8.126;2023-05-18T08:03:51;23.60;57.10
34492;DHT22;20737;49.908;8.126;2023-05-18T08:06:18;22.80;57.10
34492;DHT22;20737;49.908;8.126;2023-05-18T08:08:45;22.90;57.50
34492;DHT22;20737;49.908;8.126;2023-05-18T08:11:12;23.20;57.70
34492;DHT22;20737;49.908;8.126;2023-05-18T08:13:39;23.60;55.90
34492;DHT22;20737;49.908;8.126;2023-05-18T08:16:07;23.30;56.20
34492;DHT22;20737;49.908;8.126;2023-05-18T08:18:34;23.10;55.10
34492;DHT22;20737;49.908;8.126;2023-05-18T08:21:00;23.30;54.60
34492;DHT22;20737;49.908;8.126;2023-05-18T08:23:28;23.30;54.60
34492;DHT22;20737;49.908;8.126;2023-05-18T08:25:57;23.40;55.60
34492;DHT22;20737;49.908;8.126;2023-05-18T08:28:25;23.30;56.70
34492;DHT22;20737;49.908;8.126;2023-05-18T08:30:53;23.30;53.60
34492;DHT22;20737;49.908;8.126;2023-05-18T08:33:22;23.20;55.40
34492;DHT22;20737;49.908;8.126;2023-05-18T08:35:49;23.90;54.10
34492;DHT22;20737;49.908;8.126;2023-05-18T08:38:15;23.90;53.60
34492;DHT22;20737;49.908;8.126;2023-05-18T08:40:52;24.20;53.90
34492;DHT22;20737;49.908;8.126;2023-05-18T08:43:20;24.50;53.60
34492;DHT22;20737;49.908;8.126;2023-05-18T08:45:53;24.40;52.20
34492;DHT22;20737;49.908;8.126;2023-05-18T08:48:25;24.90;51.40
34492;DHT22;20737;49.908;8.126;2023-05-18T08:50:54;25.00;50.00
34492;DHT22;20737;49.908;8.126;2023-05-18T08:53:23;25.00;51.20
34492;DHT22;20737;49.908;8.126;2023-05-18T08:55:53;24.60;50.80
34492;DHT22;20737;49.908;8.126;2023-05-18T08:58:31;24.60;52.50
34492;DHT22;20737;49.908;8.126;2023-05-18T09:00:59;25.50;50.30
34492;DHT22;20737;49.908;8.126;2023-05-18T09:03:28;26.00;49.70
34492;DHT22;20737;49.908;8.126;2023-05-18T09:05:57;26.80;49.40
34492;DHT22;20737;49.908;8.126;2023-05-18T09:08:25;26.70;48.70
34492;DHT22;20737;49.908;8.126;2023-05-18T09:10:53;26.70;47.50
34492;DHT22;20737;49.908;8.126;2023-05-18T09:13:22;26.90;48.40
34492;DHT22;20737;49.908;8.126;2023-05-18T09:15:51;27.30;45.80
34492;DHT22;20737;49.908;8.126;2023-05-18T09:18:18;26.80;47.30
34492;DHT22;20737;49.908;8.126;2023-05-18T09:20:46;26.90;46.50
34492;DHT22;20737;49.908;8.126;2023-05-18T09:23:14;27.30;45.30
34492;DHT22;20737;49.908;8.126;2023-05-18T09:25:43;27.90;46.20
34492;DHT22;20737;49.908;8.126;2023-05-18T09:28:11;28.10;45.20
34492;DHT22;20737;49.908;8.126;2023-05-18T09:30:40;28.30;44.60
34492;DHT22;20737;49.908;8.126;2023-05-18T09:33:14;27.70;42.50
34492;DHT22;20737;49.908;8.126;2023-05-18T09:35:43;27.40;45.40
34492;DHT22;20737;49.908;8.126;2023-05-18T09:38:11;28.20;43.90
34492;DHT22;20737;49.908;8.126;2023-05-18T09:40:43;28.20;44.10
34492;DHT22;20737;49.908;8.126;2023-05-18T09:43:09;27.80;43.70
34492;DHT22;20737;49.908;8.126;2023-05-18T09:45:41;27.90;43.90
34492;DHT22;20737;49.908;8.126;2023-05-18T09:48:08;28.60;42.40
34492;DHT22;20737;49.908;8.126;2023-05-18T09:50:35;28.20;43.50
34492;DHT22;20737;49.908;8.126;2023-05-18T09:53:05;28.30;42.50
34492;DHT22;20737;49.908;8.126;2023-05-18T09:55:43;28.60;40.70
34492;DHT22;20737;49.908;8.126;2023-05-18T09:58:12;29.20;42.40
34492;DHT22;20737;49.908;8.126;2023-05-18T10:00:40;29.50;42.60
34492;DHT22;20737;49.908;8.126;2023-05-18T10:03:18;29.70;40.00
34492;DHT22;20737;49.908;8.126;2023-05-18T10:05:46;29.90;40.10
34492;DHT22;20737;49.908;8.126;2023-05-18T10:08:13;29.90;39.40
34492;DHT22;20737;49.908;8.126;2023-05-18T10:10:44;30.40;39.70
34492;DHT22;20737;49.908;8.126;2023-05-18T10:13:12;30.90;39.50
34492;DHT22;20737;49.908;8.126;2023-05-18T10:15:46;30.80;38.30
34492;DHT22;20737;49.908;8.126;2023-05-18T10:18:24;30.60;37.60
34492;DHT22;20737;49.908;8.126;2023-05-18T10:20:54;30.40;36.40
34492;DHT22;20737;49.908;8.126;2023-05-18T10:23:22;30.50;36.70
34492;DHT22;20737;49.908;8.126;2023-05-18T10:25:51;30.50;36.20
34492;DHT22;20737;49.908;8.126;2023-05-18T10:28:20;30.30;37.60
34492;DHT22;20737;49.908;8.126;2023-05-18T10:30:51;30.40;36.20
34492;DHT22;20737;49.908;8.126;2023-05-18T10:33:19;30.30;36.70
34492;DHT22;20737;49.908;8.126;2023-05-18T10:35:50;29.50;37.40
34492;DHT22;20737;49.908;8.126;2023-05-18T10:38:21;28.40;39.30
34492;DHT22;20737;49.908;8.126;2023-05-18T10:40:51;28.60;40.90
34492;DHT22;20737;49.908;8.126;2023-05-18T10:43:20;29.50;39.40
34492;DHT22;20737;49.908;8.126;2023-05-18T10:45:51;29.90;38.60
34492;DHT22;20737;49.908;8.126;2023-05-18T10:48:19;30.20;36.70
34492;DHT22;20737;49.908;8.126;2023-05-18T10:50:47;30.10;38.00
34492;DHT22;20737;49.908;8.126;2023-05-18T10:53:17;29.10;39.30
34492;DHT22;20737;49.908;8.126;2023-05-18T10:55:47;27.60;40.00
34492;DHT22;20737;49.908;8.126;2023-05-18T10:58:17;28.30;40.30
34492;DHT22;20737;49.908;8.126;2023-05-18T11:00:47;29.30;39.30
34492;DHT22;20737;49.908;8.126;2023-05-18T11:03:16;30.30;37.50
34492;DHT22;20737;49.908;8.126;2023-05-18T11:05:48;30.20;37.30
34492;DHT22;20737;49.908;8.126;2023-05-18T11:08:23;30.40;36.80
34492;DHT22;20737;49.908;8.126;2023-05-18T11:10:58;30.50;38.40
34492;DHT22;20737;49.908;8.126;2023-05-18T11:13:31;30.30;36.30
34492;DHT22;20737;49.908;8.126;2023-05-18T11:16:05;28.40;38.50
34492;DHT22;20737;49.908;8.126;2023-05-18T11:18:40;26.70;41.30
34492;DHT22;20737;49.908;8.126;2023-05-18T11:21:29;27.40;41.50
34492;DHT22;20737;49.908;8.126;2023-05-18T11:24:21;28.70;40.00
34492;DHT22;20737;49.908;8.126;2023-05-18T11:26:49;29.70;38.70
34492;DHT22;20737;49.908;8.126;2023-05-18T11:29:22;30.10;37.70
34492;DHT22;20737;49.908;8.126;2023-05-18T11:31:51;29.80;37.40
34492;DHT22;20737;49.908;8.126;2023-05-18T11:34:39;29.70;36.80
34492;DHT22;20737;49.908;8.126;2023-05-18T11:37:09;27.10;39.60
34492;DHT22;20737;49.908;8.126;2023-05-18T11:39:36;26.80;41.50
34492;DHT22;20737;49.908;8.126;2023-05-18T11:42:06;27.80;40.70
34492;DHT22;20737;49.908;8.126;2023-05-18T11:44:36;28.30;40.20
34492;DHT22;20737;49.908;8.126;2023-05-18T11:47:07;28.20;39.70
34492;DHT22;20737;49.908;8.126;2023-05-18T11:49:42;26.70;41.20
34492;DHT22;20737;49.908;8.126;2023-05-18T11:52:14;27.50;40.20
34492;DHT22;20737;49.908;8.126;2023-05-18T11:54:44;28.40;39.30
34492;DHT22;20737;49.908;8.126;2023-05-18T11:57:24;29.00;38.60
34492;DHT22;20737;49.908;8.126;2023-05-18T11:59:55;29.10;39.40
34492;DHT22;20737;49.908;8.126;2023-05-18T12:02:23;28.30;39.50
34492;DHT22;20737;49.908;8.126;2023-05-18T12:04:52;28.20;39.40
34492;DHT22;20737;49.908;8.126;2023-05-18T12:07:19;28.50;41.00
34492;DHT22;20737;49.908;8.126;2023-05-18T12:09:47;28.80;39.50
34492;DHT22;20737;49.908;8.126;2023-05-18T12:12:14;29.00;39.70
34492;DHT22;20737;49.908;8.126;2023-05-18T12:14:46;29.10;39.60
34492;DHT22;20737;49.908;8.126;2023-05-18T12:17:18;29.60;39.30
34492;DHT22;20737;49.908;8.126;2023-05-18T12:19:48;29.40;37.80
34492;DHT22;20737;49.908;8.126;2023-05-18T12:22:15;28.70;38.30
34492;DHT22;20737;49.908;8.126;2023-05-18T12:24:43;27.80;40.30
34492;DHT22;20737;49.908;8.126;2023-05-18T12:27:11;27.10;40.90
34492;DHT22;20737;49.908;8.126;2023-05-18T12:29:38;26.10;43.40
34492;DHT22;20737;49.908;8.126;2023-05-18T12:32:07;26.30;43.30
34492;DHT22;20737;49.908;8.126;2023-05-18T12:34:43;27.10;42.20
34492;DHT22;20737;49.908;8.126;2023-05-18T12:37:10;27.70;41.30
34492;DHT22;20737;49.908;8.126;2023-05-18T12:39:37;27.60;39.80
34492;DHT22;20737;49.908;8.126;2023-05-18T12:42:11;27.30;40.80
34492;DHT22;20737;49.908;8.126;2023-05-18T12:44:39;27.10;41.60
34492;DHT22;20737;49.908;8.126;2023-05-18T12:47:09;27.50;43.20
34492;DHT22;20737;49.908;8.126;2023-05-18T12:49:36;27.40;41.70
34492;DHT22;20737;49.908;8.126;2023-05-18T12:52:09;26.10;43.10
34492;DHT22;20737;49.908;8.126;2023-05-18T12:54:47;26.00;42.90
34492;DHT22;20737;49.908;8.126;2023-05-18T12:57:19;26.00;44.60
34492;DHT22;20737;49.908;8.126;2023-05-18T12:59:50;25.70;43.10
34492;DHT22;20737;49.908;8.126;2023-05-18T13:02:30;25.60;44.20
34492;DHT22;20737;49.908;8.126;2023-05-18T13:05:02;25.40;42.90
34492;DHT22;20737;49.908;8.126;2023-05-18T13:07:30;25.00;44.00
34492;DHT22;20737;49.908;8.126;2023-05-18T13:10:04;24.20;47.50
34492;DHT22;20737;49.908;8.126;2023-05-18T13:12:37;23.30;46.90
34492;DHT22;20737;49.908;8.126;2023-05-18T13:15:09;22.80;47.90
34492;DHT22;20737;49.908;8.126;2023-05-18T13:17:36;22.70;47.90
34492;DHT22;20737;49.908;8.126;2023-05-18T13:20:10;22.70;49.90
34492;DHT22;20737;49.908;8.126;2023-05-18T13:22:38;22.70;49.00
34492;DHT22;20737;49.908;8.126;2023-05-18T13:25:06;22.30;48.10
34492;DHT22;20737;49.908;8.126;2023-05-18T13:27:33;22.20;50.50
34492;DHT22;20737;49.908;8.126;2023-05-18T13:30:00;22.00;50.40
34492;DHT22;20737;49.908;8.126;2023-05-18T13:32:27;21.90;50.90
34492;DHT22;20737;49.908;8.126;2023-05-18T13:34:53;22.10;51.00
34492;DHT22;20737;49.908;8.126;2023-05-18T13:37:22;22.40;49.90
34492;DHT22;20737;49.908;8.126;2023-05-18T13:39:50;22.50;49.80
34492;DHT22;20737;49.908;8.126;2023-05-18T13:42:17;23.00;49.70
34492;DHT22;20737;49.908;8.126;2023-05-18T13:44:45;22.90;48.90
34492;DHT22;20737;49.908;8.126;2023-05-18T13:47:15;22.70;48.60
34492;DHT22;20737;49.908;8.126;2023-05-18T13:49:41;22.80;48.90
34492;DHT22;20737;49.908;8.126;2023-05-18T13:52:09;22.50;47.50
34492;DHT22;20737;49.908;8.126;2023-05-18T13:54:36;22.50;49.50
34492;DHT22;20737;49.908;8.126;2023-05-18T13:57:04;22.40;50.60
34492;DHT22;20737;49.908;8.126;2023-05-18T13:59:32;22.30;50.00
34492;DHT22;20737;49.908;8.126;2023-05-18T14:01:59;22.30;49.70
34492;DHT22;20737;49.908;8.126;2023-05-18T14:04:25;22.30;49.20
34492;DHT22;20737;49.908;8.126;2023-05-18T14:06:52;22.00;50.90
34492;DHT22;20737;49.908;8.126;2023-05-18T14:09:20;22.10;50.60
34492;DHT22;20737;49.908;8.126;2023-05-18T14:11:50;22.10;50.50
34492;DHT22;20737;49.908;8.126;2023-05-18T14:14:18;22.00;49.00
34492;DHT22;20737;49.908;8.126;2023-05-18T14:16:48;21.90;49.50
34492;DHT22;20737;49.908;8.126;2023-05-18T14:19:15;22.10;52.50
34492;DHT22;20737;49.908;8.126;2023-05-18T14:21:44;22.40;51.30
34492;DHT22;20737;49.908;8.126;2023-05-18T14:24:11;22.30;49.90
34492;DHT22;20737;49.908;8.126;2023-05-18T14:26:39;22.40;50.10
34492;DHT22;20737;49.908;8.126;2023-05-18T14:29:06;22.70;50.20
34492;DHT22;20737;49.908;8.126;2023-05-18T14:31:34;22.20;48.50
34492;DHT22;20737;49.908;8.126;2023-05-18T14:34:02;22.30;50.10
34492;DHT22;20737;49.908;8.126;2023-05-18T14:36:31;22.20;49.40
34492;DHT22;20737;49.908;8.126;2023-05-18T14:38:58;22.40;50.30
34492;DHT22;20737;49.908;8.126;2023-05-18T14:41:25;22.60;50.80
34492;DHT22;20737;49.908;8.126;2023-05-18T14:43:52;22.80;48.60
34492;DHT22;20737;49.908;8.126;2023-05-18T14:46:18;22.90;50.80
34492;DHT22;20737;49.908;8.126;2023-05-18T14:48:47;22.80;49.10
34492;DHT22;20737;49.908;8.126;2023-05-18T14:51:14;22.80;49.00
34492;DHT22;20737;49.908;8.126;2023-05-18T14:53:42;22.30;49.80
34492;DHT22;20737;49.908;8.126;2023-05-18T14:56:10;21.60;48.90
34492;DHT22;20737;49.908;8.126;2023-05-18T14:58:37;21.00;50.60
34492;DHT22;20737;49.908;8.126;2023-05-18T15:01:04;20.90;51.40
34492;DHT22;20737;49.908;8.126;2023-05-18T15:03:31;21.20;53.30
34492;DHT22;20737;49.908;8.126;2023-05-18T15:05:59;21.40;51.70
34492;DHT22;20737;49.908;8.126;2023-05-18T15:08:27;21.70;50.00
34492;DHT22;20737;49.908;8.126;2023-05-18T15:10:54;21.80;51.30
34492;DHT22;20737;49.908;8.126;2023-05-18T15:13:21;21.80;50.40
34492;DHT22;20737;49.908;8.126;2023-05-18T15:15:47;21.70;51.30
34492;DHT22;20737;49.908;8.126;2023-05-18T15:18:14;21.50;50.90
34492;DHT22;20737;49.908;8.126;2023-05-18T15:20:41;21.40;51.20
34492;DHT22;20737;49.908;8.126;2023-05-18T15:23:09;21.40;51.10
34492;DHT22;20737;49.908;8.126;2023-05-18T15:25:36;21.50;51.30
34492;DHT22;20737;49.908;8.126;2023-05-18T15:28:03;21.60;51.80
34492;DHT22;20737;49.908;8.126;2023-05-18T15:30:30;21.60;51.00
34492;DHT22;20737;49.908;8.126;2023-05-18T15:32:57;21.40;51.50
34492;DHT22;20737;49.908;8.126;2023-05-18T15:35:26;21.40;51.00
34492;DHT22;20737;49.908;8.126;2023-05-18T15:37:53;21.30;51.30
34492;DHT22;20737;49.908;8.126;2023-05-18T15:40:21;21.20;51.50
34492;DHT22;20737;49.908;8.126;2023-05-18T15:42:51;21.20;52.30
34492;DHT22;20737;49.908;8.126;2023-05-18T15:45:17;21.10;51.80
34492;DHT22;20737;49.908;8.126;2023-05-18T15:47:44;21.10;50.40
34492;DHT22;20737;49.908;8.126;2023-05-18T15:50:11;21.10;52.00